KAIK/AIK METAR and TAF weather

Enter ICAO airport designator
Station Type Date Time Source
KAIK METAR 2020/08/14 16:55 UTC NOAA

KAIK 141655Z AUTO 00000KT 10SM BKN028 BKN033 29/22 A3001 RMK AO2 LTG DSNT S T02880221


Station Type Date Time Source
KAIK Decoded METAR 2020/08/14 16:55 UTC NOAA

Station name not available
Aug 14, 2020 - 12:55 PM EDT / 2020.08.14 1655 UTC
Wind: Calm:0
Visibility: 10 mile(s):0
Sky conditions: mostly cloudy
Weather: Lightning observed
Temperature: 83.8 F (28.8 C)
Dew Point: 71.8 F (22.1 C)
Relative Humidity: 67%
Pressure (altimeter): 30.01 in. Hg (1016 hPa)
ob: KAIK 141655Z AUTO 00000KT 10SM BKN028 BKN033 29/22 A3001 RMK AO2 LTG DSNT S T02880221
cycle: 17

Station Type Date Time Source
KAIK TAF UTC NOAA

Error!

Example: see airport list